Station: Ross (Tfs)  

  Atmospheric Gas Attenuation - ITU Rec 676-11   ----------------- dB/100km -----------------
Date Time Temp RH % AH g/m3 Dew Point Wind Direction Speed kph Gust kph Barometer mB Rainfall Since 9am 24GHz 47GHz 76GHz 122GHz 134GHz 241GHz
08/05 12:20 13.6 52 6.12 4 28 32 1013.1 0 14.3 22.1 30.4 79.3 67.3 229.4
08/05 12:10 13.9 55 6.59 5 26 33 1013.1 0 15.3 22.7 32.0 83.6 72.7 248.5
08/05 12:00 13.7 53 6.28 4.4 32 35 1013.1 0 14.7 22.3 30.9 80.8 69.1 235.9
08/05 11:50 13.8 55 6.55 5 26 32 1013.1 0 15.2 22.7 31.9 83.3 72.3 247.1
08/05 11:40 13.8 54 6.43 4.7 20 26 1013.1 0 15.0 22.5 31.4 82.1 70.9 242.0
08/05 11:30 13.5 55 6.43 4.8 22 30 1013.1 0 15.0 22.6 31.6 82.4 71.1 242.9
08/05 11:20 12.8 58 6.5 4.8 24 30 1013.1 0 15.2 22.9 32.1 83.9 72.6 248.1
08/05 11:10 12.2 59 6.37 4.4 24 33 1013.1 0 14.9 22.8 31.8 83.2 71.6 244.3
08/05 11:00 12.6 60 6.64 5.1 30 33 1013.1 0 15.5 23.1 32.7 85.5 74.6 254.8
08/05 10:50 12.9 58 6.54 4.9 30 33 1013.1 0 15.2 22.9 32.2 84.2 73.0 249.5
08/05 10:40 12.8 58 6.5 4.8 24 28 1013.1 0 15.2 22.9 32.1 83.9 72.6 248.1
08/05 10:30 12.5 59 6.49 4.7 24 30 1013.1 0 15.1 22.9 32.2 84.1 72.8 248.6
08/05 10:20 12.4 60 6.56 4.9 28 33 1013.1 0 15.3 23.1 32.5 84.9 73.7 251.9
08/05 10:10 12 61 6.5 4.8 26 30 1013.1 0 15.2 23.1 32.4 84.7 73.4 250.6
08/05 10:00 11.7 62 6.49 4.8 24 26 1013.1 0 15.2 23.1 32.5 84.9 73.5 251.1
08/05 09:50 11.5 63 6.51 4.7 24 28 1013.1 0 15.2 23.2 32.6 85.3 74.0 252.6
08/05 09:40 11.2 63 6.39 4.5 24 28 1013.1 0 15.0 23.1 32.3 84.4 72.7 248.2
08/05 09:30 11.3 61 6.22 4.2 28 32 1013.1 0 14.6 22.8 31.6 82.6 70.5 240.5
08/05 09:20 11.3 62 6.33 4.3 24 32 1013.1 0 14.9 23.0 32.0 83.7 71.9 245.3
08/05 09:10 11.1 66 6.65 5 19 22 1013.1 0 15.5 23.5 33.4 87.2 76.1 260.1
08/05 09:00 11 64 6.41 4.4 19 22 1013.1 0.2 15.0 23.2 32.5 84.8 73.2 249.7
08/05 08:50 10.6 64 6.25 4.2 22 26 1013.1 0.2 14.7 23.0 32.0 83.6 71.5 243.9
08/05 08:40 10.5 65 6.31 4.2 17 20 1013.1 0.2 14.8 23.2 32.3 84.4 72.4 246.9
08/05 08:30 10.1 66 6.24 4.1 11 15 1013.1 0.2 14.7 23.2 32.2 84.1 71.9 245.0
08/05 08:20 10 66 6.2 4 9 11 1013.1 0.2 14.6 23.1 32.1 83.8 71.4 243.5
08/05 08:10 9.9 65 6.07 3.7 9 13 1013.1 0.2 14.3 22.9 31.6 82.5 69.9 238.1
08/05 08:00 10.1 63 5.96 3.5 17 24 1013.1 0.2 14.1 22.7 31.1 81.2 68.3 232.6
08/05 07:50 10.1 63 5.96 3.5 22 28 1013.1 0.2 14.1 22.7 31.1 81.2 68.3 232.6
08/05 07:40 9.7 65 5.99 3.4 19 22 1013.1 0.2 14.2 22.9 31.4 81.9 69.1 235.1
08/05 07:30 9.3 68 6.11 3.8 17 22 1013.1 0.2 14.5 23.2 32.0 83.6 70.9 241.6
08/05 07:20 9.4 69 6.24 4.1 19 24 1013.1 0.2 14.7 23.3 32.5 84.8 72.5 247.2
08/05 07:10 9.7 70 6.46 4.5 26 35 1013.1 0.2 15.2 23.6 33.2 86.8 75.0 256.1
08/05 07:00 9.7 68 6.27 4.1 24 28 1013.1 0.2 14.8 23.3 32.5 84.8 72.6 247.6
08/05 06:50 9.5 70 6.37 4.3 22 28 1013.1 0.2 15.0 23.5 32.9 86.1 74.1 252.7
08/05 06:40 9.8 67 6.22 4 28 41 1013.1 0.2 14.7 23.2 32.2 84.2 71.9 245.0
08/05 06:30 10.2 68 6.47 4.5 28 33 1013.1 0.2 15.2 23.5 33.0 86.3 74.7 255.0
08/05 06:20 10.3 66 6.32 4.2 28 39 1013.1 0.2 14.9 23.2 32.4 84.7 72.7 247.9
08/05 06:10 10.4 65 6.27 4.2 32 37 1013.1 0.2 14.8 23.1 32.2 84.1 72.0 245.4
08/05 06:00 10.2 67 6.38 4.3 32 37 1013.1 0.2 15.0 23.3 32.7 85.4 73.5 250.9
08/05 05:50 10.1 68 6.43 4.4 28 33 1013.1 0.2 15.1 23.5 32.9 86.0 74.3 253.5
08/05 05:40 10.2 66 6.28 4.2 24 28 1013.1 0.2 14.8 23.2 32.3 84.4 72.3 246.5
08/05 05:30 10.3 66 6.32 4.3 26 32 1013.1 0.2 14.9 23.2 32.4 84.7 72.7 247.9
08/05 05:20 10.4 65 6.27 4.1 33 39 1013.1 0.2 14.8 23.1 32.2 84.1 72.0 245.4
08/05 05:10 10.4 64 6.17 3.9 30 35 1013.1 0.2 14.5 23.0 31.8 83.0 70.7 241.0
08/05 05:00 10.4 65 6.27 4.1 33 39 1013.1 0.2 14.8 23.1 32.2 84.1 72.0 245.4
08/05 04:50 10.5 64 6.21 4 32 39 1013.1 0.2 14.6 23.0 31.9 83.3 71.1 242.4
08/05 04:40 10.7 64 6.29 4.2 30 37 1013.1 0.2 14.8 23.1 32.1 83.9 71.9 245.4
08/05 04:30 10.7 63 6.19 3.9 30 33 1013.1 0.2 14.6 22.9 31.8 82.9 70.7 241.0
08/05 04:20 10.6 64 6.25 4.1 24 28 1013.1 0.2 14.7 23.0 32.0 83.6 71.5 243.9
08/05 04:10 10.9 62 6.17 3.9 32 35 1013.1 0.2 14.5 22.8 31.6 82.5 70.3 239.5
08/05 04:00 10.8 62 6.13 3.8 33 39 1013.1 0.2 14.4 22.8 31.5 82.2 69.8 238.0
08/05 03:50 10.7 60 5.89 3.2 32 39 1013.1 0.2 13.9 22.5 30.6 79.9 66.9 227.8
08/05 03:40 10.7 62 6.09 3.7 26 32 1013.1 0.2 14.4 22.8 31.4 81.9 69.4 236.6
08/05 03:30 10.3 62 5.94 3.5 20 28 1013.1 0.2 14.1 22.6 31.0 80.8 67.9 231.2
08/05 03:20 10.4 62 5.98 3.5 17 22 1013.1 0.2 14.1 22.7 31.1 81.1 68.3 232.6
08/05 03:10 10.4 64 6.17 3.9 20 26 1013.1 0.2 14.5 23.0 31.8 83.0 70.7 241.0
08/05 03:00 10.5 62 6.01 3.6 19 22 1013.1 0.2 14.2 22.7 31.1 81.3 68.6 233.6
08/05 02:50 10.7 62 6.09 3.7 17 22 1013.1 0.2 14.4 22.8 31.4 81.9 69.4 236.6
08/05 02:40 11.1 61 6.15 3.9 24 28 1013.1 0.2 14.5 22.8 31.4 82.1 69.8 238.0
08/05 02:30 11.1 62 6.25 4.1 30 33 1013.1 0.2 14.7 22.9 31.8 83.1 71.1 242.4
08/05 02:20 10.4 63 6.07 3.8 17 33 1013.1 0.2 14.3 22.8 31.4 82.0 69.4 236.6
08/05 02:10 9.5 74 6.74 5.1 11 13 1013.1 0.2 15.8 24.1 34.4 89.9 78.9 269.5
08/05 02:00 8.3 77 6.49 4.5 9 13 1013.1 0.2 15.3 24.0 33.9 88.6 76.8 262.1
08/05 01:50 7.5 84 6.73 5 4 6 1013.1 0.2 15.9 24.6 35.2 92.1 80.8 276.0
08/05 01:40 7.6 83 6.69 4.9 6 7 1013.1 0.2 15.8 24.5 35.0 91.6 80.1 273.7
08/05 01:30 6.9 86 6.62 4.7 6 11 1013.1 0.2 15.6 24.6 35.0 91.6 79.9 272.9
08/05 01:20 6.2 92 6.77 5 11 13 1013.1 0.2 16.0 25.1 36.0 94.1 82.7 282.5
08/05 01:10 6.1 93 6.8 5.1 13 15 1013.1 0.2 16.1 25.1 36.1 94.6 83.2 284.3
08/05 01:00 6.7 89 6.77 5.1 7 13 1013.1 0.2 16.0 24.9 35.7 93.5 82.2 280.7
08/05 00:50 7 89 6.9 5.3 7 11 1013.1 0.2 16.2 25.0 36.1 94.6 83.6 285.8
08/05 00:40 7.1 88 6.87 5.3 9 15 1013.1 0.2 16.2 25.0 36.0 94.1 83.1 284.0
08/05 00:30 7 89 6.9 5.3 17 22 1013.1 0.2 16.2 25.0 36.1 94.6 83.6 285.8
08/05 00:20 6.9 89 6.85 5.2 22 28 1013.1 0.2 16.1 25.0 36.0 94.2 83.0 283.8
08/05 00:10 7 88 6.82 5.2 26 28 1013.1 0.2 16.1 24.9 35.8 93.7 82.5 282.0
08/05 00:00 7 88 6.82 5.2 24 28 1013.1 0.2 16.1 24.9 35.8 93.7 82.5 282.0
07/05 23:50 7.1 87 6.79 5.1 26 30 1013.1 0.2 16.0 24.8 35.6 93.3 82.0 280.2
07/05 23:40 7 88 6.82 5.1 26 28 1013.1 0.2 16.1 24.9 35.8 93.7 82.5 282.0
07/05 23:30 6.8 88 6.73 4.9 26 32 1013.1 0.2 15.9 24.8 35.5 93.0 81.5 278.4
07/05 23:20 7 86 6.67 4.8 30 32 1013.1 0.2 15.7 24.7 35.2 92.1 80.5 274.9
07/05 23:10 7 85 6.59 4.7 32 37 1013.1 0.2 15.6 24.5 34.9 91.2 79.4 271.1
07/05 23:00 7.1 84 6.55 4.6 32 35 1013.1 0.2 15.5 24.4 34.7 90.7 78.8 268.9
07/05 22:50 7 84 6.51 4.5 32 33 1013.1 0.2 15.4 24.4 34.5 90.3 78.4 267.4
07/05 22:40 7 83 6.43 4.4 32 35 1013.1 0.2 15.2 24.3 34.2 89.5 77.3 263.6
07/05 22:30 6.7 83 6.31 4.1 32 35 1013.1 0.2 15.0 24.2 33.9 88.5 76.0 259.0
07/05 22:20 6.8 83 6.35 4.1 33 35 1013.1 0.2 15.1 24.2 34.0 88.8 76.4 260.6
07/05 22:10 6.7 83 6.31 4 33 35 1013.1 0.2 15.0 24.2 33.9 88.5 76.0 259.0
07/05 22:00 6.7 82 6.23 3.8 33 37 1013.1 0.2 14.8 24.0 33.5 87.7 74.9 255.3
07/05 21:50 6.5 82 6.15 3.7 32 32 1013.1 0.2 14.6 24.0 33.3 87.0 74.1 252.2
07/05 21:40 6.5 82 6.15 3.6 32 37 1013.1 0.2 14.6 24.0 33.3 87.0 74.1 252.2
07/05 21:30 6.6 81 6.12 3.6 35 37 1013.1 0.2 14.6 23.9 33.1 86.6 73.6 250.5
07/05 21:20 6.6 80 6.04 3.5 33 35 1013.1 0.2 14.4 23.8 32.8 85.7 72.5 246.8
07/05 21:10 6.4 81 6.04 3.4 32 35 1013.1 0.2 14.4 23.8 32.9 85.9 72.7 247.4
07/05 21:00 6.4 79 5.89 3.1 30 33 1013.1 0.2 14.1 23.6 32.3 84.3 70.7 240.5
07/05 20:50 6.4 78 5.82 2.9 30 32 1013.1 0.2 13.9 23.5 32.0 83.6 69.8 237.3
07/05 20:40 6.4 77 5.74 2.7 33 37 1013.1 0.2 13.8 23.3 31.7 82.8 68.8 233.6
07/05 20:30 6.4 77 5.74 2.6 30 32 1013.1 0.2 13.8 23.3 31.7 82.8 68.8 233.6
07/05 20:20 6.3 76 5.63 2.5 32 33 1013.1 0.2 13.5 23.2 31.3 81.7 67.4 228.9
07/05 20:10 6.3 76 5.63 2.4 28 32 1013.1 0.2 13.5 23.2 31.3 81.7 67.4 228.9
07/05 20:00 6.3 75 5.55 2.3 32 33 1013.1 0.2 13.4 23.0 31.0 80.9 66.4 225.2
07/05 19:50 6.4 74 5.52 2.2 32 33 1013.1 0.2 13.3 23.0 30.8 80.4 65.9 223.6

Last Refresh: 08-May-2026 12:09:24

Bureau of Meteorology